アティラウ の空港の天気 - METARとTAF

Atyrau Airport ( UATG / GUW ) - カザフスタン Atyrau
飛行場実況気象(Metar)
観測時間08/17 16:30 ORAT (08/17 11:30 UTC)
風向・風速南南東 6m/s
視程10km以上
天気現象
なし
気温34℃
湿度19%
気圧1014hPa
METARUATG 171130Z 16006MPS CAVOK 34/07 Q1014 R14/CLRD70 NOSIG RMK QFE762/1016
過去の天気等 Google飛行場航空写真 Wunderground天気予報

過去48時間のMETAR

飛行場予報(TAF)
発表時間: 8/17 16:00 ORAT (8/17 11:00 UTC)
予報対象時間: 17日17時 ORAT ~ 18日17時 ORAT
風向・風速南東 10m/s
視程10km以上
なし
17日20時 ORAT ~ 17日22時 ORAT に徐々に
風向・風速東 5m/s
TAF UATG 171100Z 1712/1812 14010MPS CAVOK TX35/1811Z TN19/1801Z
BECMG 1715/1717 09005MPS